sensor_id;sensor_type;location;lat;lon;timestamp;temperature;humidity
45008;DHT22;30743;52.008;5.644;2023-06-26T00:01:41;29.40;92.90
45008;DHT22;30743;52.008;5.644;2023-06-26T00:04:08;29.30;93.10
45008;DHT22;30743;52.008;5.644;2023-06-26T00:06:40;29.30;93.00
45008;DHT22;30743;52.008;5.644;2023-06-26T00:09:05;29.30;93.10
45008;DHT22;30743;52.008;5.644;2023-06-26T00:11:31;29.30;93.10
45008;DHT22;30743;52.008;5.644;2023-06-26T00:14:01;29.30;93.30
45008;DHT22;30743;52.008;5.644;2023-06-26T00:16:27;29.20;93.30
45008;DHT22;30743;52.008;5.644;2023-06-26T00:18:53;29.20;93.40
45008;DHT22;30743;52.008;5.644;2023-06-26T00:21:19;29.20;93.40
45008;DHT22;30743;52.008;5.644;2023-06-26T00:23:45;29.10;93.50
45008;DHT22;30743;52.008;5.644;2023-06-26T00:26:11;29.00;93.60
45008;DHT22;30743;52.008;5.644;2023-06-26T00:28:37;29.00;93.80
45008;DHT22;30743;52.008;5.644;2023-06-26T00:31:03;29.00;93.50
45008;DHT22;30743;52.008;5.644;2023-06-26T00:33:28;28.70;93.60
45008;DHT22;30743;52.008;5.644;2023-06-26T00:35:54;28.70;93.90
45008;DHT22;30743;52.008;5.644;2023-06-26T00:38:19;28.80;93.90
45008;DHT22;30743;52.008;5.644;2023-06-26T00:40:45;28.80;94.10
45008;DHT22;30743;52.008;5.644;2023-06-26T00:43:11;28.70;94.20
45008;DHT22;30743;52.008;5.644;2023-06-26T00:45:36;28.80;94.40
45008;DHT22;30743;52.008;5.644;2023-06-26T00:48:02;28.70;94.30
45008;DHT22;30743;52.008;5.644;2023-06-26T00:50:28;28.70;94.40
45008;DHT22;30743;52.008;5.644;2023-06-26T00:52:54;28.70;94.30
45008;DHT22;30743;52.008;5.644;2023-06-26T00:55:22;28.60;94.40
45008;DHT22;30743;52.008;5.644;2023-06-26T00:57:47;28.40;94.50
45008;DHT22;30743;52.008;5.644;2023-06-26T01:00:14;28.40;94.70
45008;DHT22;30743;52.008;5.644;2023-06-26T01:02:39;28.30;94.90
45008;DHT22;30743;52.008;5.644;2023-06-26T01:05:06;28.10;95.20
45008;DHT22;30743;52.008;5.644;2023-06-26T01:07:36;27.90;95.40
45008;DHT22;30743;52.008;5.644;2023-06-26T01:10:06;27.80;95.60
45008;DHT22;30743;52.008;5.644;2023-06-26T01:12:33;27.80;95.70
45008;DHT22;30743;52.008;5.644;2023-06-26T01:14:59;27.70;95.80
45008;DHT22;30743;52.008;5.644;2023-06-26T01:17:29;27.70;95.80
45008;DHT22;30743;52.008;5.644;2023-06-26T01:19:58;27.70;95.60
45008;DHT22;30743;52.008;5.644;2023-06-26T01:22:38;27.80;95.70
45008;DHT22;30743;52.008;5.644;2023-06-26T01:27:45;27.80;95.90
45008;DHT22;30743;52.008;5.644;2023-06-26T01:30:11;27.90;96.00
45008;DHT22;30743;52.008;5.644;2023-06-26T01:32:37;27.90;96.00
45008;DHT22;30743;52.008;5.644;2023-06-26T01:35:06;27.80;95.60
45008;DHT22;30743;52.008;5.644;2023-06-26T01:37:32;27.70;95.50
45008;DHT22;30743;52.008;5.644;2023-06-26T01:39:57;27.60;95.50
45008;DHT22;30743;52.008;5.644;2023-06-26T01:42:23;27.40;95.30
45008;DHT22;30743;52.008;5.644;2023-06-26T01:44:49;27.30;95.40
45008;DHT22;30743;52.008;5.644;2023-06-26T01:47:20;26.90;95.50
45008;DHT22;30743;52.008;5.644;2023-06-26T01:49:52;26.90;95.90
45008;DHT22;30743;52.008;5.644;2023-06-26T01:58:01;26.40;96.50
45008;DHT22;30743;52.008;5.644;2023-06-26T02:00:27;26.40;96.30
45008;DHT22;30743;52.008;5.644;2023-06-26T02:02:54;26.40;96.70
45008;DHT22;30743;52.008;5.644;2023-06-26T02:05:19;26.40;96.70
45008;DHT22;30743;52.008;5.644;2023-06-26T02:07:45;26.30;96.90
45008;DHT22;30743;52.008;5.644;2023-06-26T02:10:10;26.30;97.10
45008;DHT22;30743;52.008;5.644;2023-06-26T02:12:36;26.30;97.30
45008;DHT22;30743;52.008;5.644;2023-06-26T02:15:03;26.20;97.50
45008;DHT22;30743;52.008;5.644;2023-06-26T02:17:29;26.20;97.50
45008;DHT22;30743;52.008;5.644;2023-06-26T02:19:55;26.00;97.90
45008;DHT22;30743;52.008;5.644;2023-06-26T02:22:20;26.00;98.30
45008;DHT22;30743;52.008;5.644;2023-06-26T02:24:46;26.10;98.70
45008;DHT22;30743;52.008;5.644;2023-06-26T02:27:12;26.10;98.20
45008;DHT22;30743;52.008;5.644;2023-06-26T02:29:39;26.10;98.40
45008;DHT22;30743;52.008;5.644;2023-06-26T02:32:04;25.90;98.60
45008;DHT22;30743;52.008;5.644;2023-06-26T02:34:30;25.80;98.90
45008;DHT22;30743;52.008;5.644;2023-06-26T02:36:56;25.80;99.30
45008;DHT22;30743;52.008;5.644;2023-06-26T02:39:22;25.70;99.60
45008;DHT22;30743;52.008;5.644;2023-06-26T02:41:47;25.60;99.90
45008;DHT22;30743;52.008;5.644;2023-06-26T02:44:13;25.60;99.90
45008;DHT22;30743;52.008;5.644;2023-06-26T02:46:39;25.70;99.90
45008;DHT22;30743;52.008;5.644;2023-06-26T02:49:06;25.60;99.90
45008;DHT22;30743;52.008;5.644;2023-06-26T02:51:33;25.80;99.90
45008;DHT22;30743;52.008;5.644;2023-06-26T02:53:58;25.70;99.90
45008;DHT22;30743;52.008;5.644;2023-06-26T02:56:24;25.80;99.90
45008;DHT22;30743;52.008;5.644;2023-06-26T02:58:57;25.70;99.90
45008;DHT22;30743;52.008;5.644;2023-06-26T03:01:22;25.70;99.90
45008;DHT22;30743;52.008;5.644;2023-06-26T03:03:48;25.70;99.90
45008;DHT22;30743;52.008;5.644;2023-06-26T03:06:14;25.70;99.90
45008;DHT22;30743;52.008;5.644;2023-06-26T03:08:40;25.80;99.90
45008;DHT22;30743;52.008;5.644;2023-06-26T03:11:06;25.80;99.90
45008;DHT22;30743;52.008;5.644;2023-06-26T03:13:33;25.60;99.90
45008;DHT22;30743;52.008;5.644;2023-06-26T03:15:59;25.50;99.90
45008;DHT22;30743;52.008;5.644;2023-06-26T03:18:24;25.50;99.90
45008;DHT22;30743;52.008;5.644;2023-06-26T03:20:50;25.50;99.90
45008;DHT22;30743;52.008;5.644;2023-06-26T03:23:16;25.50;99.90
45008;DHT22;30743;52.008;5.644;2023-06-26T03:25:41;25.40;99.90
45008;DHT22;30743;52.008;5.644;2023-06-26T03:28:07;25.30;99.90
45008;DHT22;30743;52.008;5.644;2023-06-26T03:30:32;25.40;99.90
45008;DHT22;30743;52.008;5.644;2023-06-26T03:32:58;25.40;99.90
45008;DHT22;30743;52.008;5.644;2023-06-26T03:35:23;25.40;99.90
45008;DHT22;30743;52.008;5.644;2023-06-26T03:37:50;25.00;99.90
45008;DHT22;30743;52.008;5.644;2023-06-26T03:40:15;25.10;99.90
45008;DHT22;30743;52.008;5.644;2023-06-26T03:42:42;25.20;99.90
45008;DHT22;30743;52.008;5.644;2023-06-26T03:45:07;25.00;99.90
45008;DHT22;30743;52.008;5.644;2023-06-26T03:47:33;25.00;99.90
45008;DHT22;30743;52.008;5.644;2023-06-26T03:49:58;24.90;99.90
45008;DHT22;30743;52.008;5.644;2023-06-26T03:52:24;24.80;99.90
45008;DHT22;30743;52.008;5.644;2023-06-26T03:54:49;24.90;99.90
45008;DHT22;30743;52.008;5.644;2023-06-26T03:57:15;24.90;99.90
45008;DHT22;30743;52.008;5.644;2023-06-26T03:59:41;24.90;99.90
45008;DHT22;30743;52.008;5.644;2023-06-26T04:02:06;25.00;99.90
45008;DHT22;30743;52.008;5.644;2023-06-26T04:04:32;25.00;99.90
45008;DHT22;30743;52.008;5.644;2023-06-26T04:06:57;25.10;99.90
45008;DHT22;30743;52.008;5.644;2023-06-26T04:09:25;25.00;99.90
45008;DHT22;30743;52.008;5.644;2023-06-26T04:11:50;25.00;99.90
45008;DHT22;30743;52.008;5.644;2023-06-26T04:14:16;25.20;99.90
45008;DHT22;30743;52.008;5.644;2023-06-26T04:16:41;25.10;99.90
45008;DHT22;30743;52.008;5.644;2023-06-26T04:19:07;25.20;99.90
45008;DHT22;30743;52.008;5.644;2023-06-26T04:21:33;25.20;99.90
45008;DHT22;30743;52.008;5.644;2023-06-26T04:23:58;25.10;99.90
45008;DHT22;30743;52.008;5.644;2023-06-26T04:26:24;25.20;99.90
45008;DHT22;30743;52.008;5.644;2023-06-26T04:28:49;25.20;99.90
45008;DHT22;30743;52.008;5.644;2023-06-26T04:31:15;25.10;99.90
45008;DHT22;30743;52.008;5.644;2023-06-26T04:33:40;25.10;99.90
45008;DHT22;30743;52.008;5.644;2023-06-26T04:36:06;25.00;99.90
45008;DHT22;30743;52.008;5.644;2023-06-26T04:38:32;24.70;99.90
45008;DHT22;30743;52.008;5.644;2023-06-26T04:40:58;24.50;99.90
45008;DHT22;30743;52.008;5.644;2023-06-26T04:43:24;24.20;99.90
45008;DHT22;30743;52.008;5.644;2023-06-26T04:45:49;24.20;99.90
45008;DHT22;30743;52.008;5.644;2023-06-26T04:48:15;24.10;99.90
45008;DHT22;30743;52.008;5.644;2023-06-26T04:50:41;24.10;99.90
45008;DHT22;30743;52.008;5.644;2023-06-26T04:53:06;24.30;99.90
45008;DHT22;30743;52.008;5.644;2023-06-26T04:55:32;23.90;99.90
45008;DHT22;30743;52.008;5.644;2023-06-26T04:57:57;23.90;99.90
45008;DHT22;30743;52.008;5.644;2023-06-26T05:00:23;24.00;99.90
45008;DHT22;30743;52.008;5.644;2023-06-26T05:02:50;24.50;99.90
45008;DHT22;30743;52.008;5.644;2023-06-26T05:05:25;24.20;99.90
45008;DHT22;30743;52.008;5.644;2023-06-26T05:07:53;24.30;99.90
45008;DHT22;30743;52.008;5.644;2023-06-26T05:10:19;24.50;99.90
45008;DHT22;30743;52.008;5.644;2023-06-26T05:12:44;24.50;99.90
45008;DHT22;30743;52.008;5.644;2023-06-26T05:15:10;24.80;99.90
45008;DHT22;30743;52.008;5.644;2023-06-26T05:17:35;24.80;99.90
45008;DHT22;30743;52.008;5.644;2023-06-26T05:20:01;24.90;99.90
45008;DHT22;30743;52.008;5.644;2023-06-26T05:22:26;24.90;99.90
45008;DHT22;30743;52.008;5.644;2023-06-26T05:24:54;25.20;99.90
45008;DHT22;30743;52.008;5.644;2023-06-26T05:27:20;25.10;99.90
45008;DHT22;30743;52.008;5.644;2023-06-26T05:29:48;25.10;99.90
45008;DHT22;30743;52.008;5.644;2023-06-26T05:32:15;25.20;99.90
45008;DHT22;30743;52.008;5.644;2023-06-26T05:34:43;25.30;99.90
45008;DHT22;30743;52.008;5.644;2023-06-26T05:37:13;25.40;99.90
45008;DHT22;30743;52.008;5.644;2023-06-26T05:39:40;25.40;99.90
45008;DHT22;30743;52.008;5.644;2023-06-26T05:42:06;25.60;99.90
45008;DHT22;30743;52.008;5.644;2023-06-26T05:44:31;25.60;99.90
45008;DHT22;30743;52.008;5.644;2023-06-26T05:46:57;25.60;99.90
45008;DHT22;30743;52.008;5.644;2023-06-26T05:49:22;25.90;99.90
45008;DHT22;30743;52.008;5.644;2023-06-26T05:51:48;25.70;99.90
45008;DHT22;30743;52.008;5.644;2023-06-26T05:54:15;26.00;99.90
45008;DHT22;30743;52.008;5.644;2023-06-26T05:56:41;25.90;99.90
45008;DHT22;30743;52.008;5.644;2023-06-26T05:59:07;26.10;99.90
45008;DHT22;30743;52.008;5.644;2023-06-26T06:01:33;26.20;99.90
45008;DHT22;30743;52.008;5.644;2023-06-26T06:03:59;26.40;99.90
45008;DHT22;30743;52.008;5.644;2023-06-26T06:06:25;26.60;99.90
45008;DHT22;30743;52.008;5.644;2023-06-26T06:08:50;26.30;99.90
45008;DHT22;30743;52.008;5.644;2023-06-26T06:11:16;26.40;99.90
45008;DHT22;30743;52.008;5.644;2023-06-26T06:13:41;26.50;99.90
45008;DHT22;30743;52.008;5.644;2023-06-26T06:16:07;26.70;99.90
45008;DHT22;30743;52.008;5.644;2023-06-26T06:18:32;27.00;99.90
45008;DHT22;30743;52.008;5.644;2023-06-26T06:20:58;27.30;99.90
45008;DHT22;30743;52.008;5.644;2023-06-26T06:23:23;27.50;99.90
45008;DHT22;30743;52.008;5.644;2023-06-26T06:25:49;27.60;99.90
45008;DHT22;30743;52.008;5.644;2023-06-26T06:28:14;27.80;99.90
45008;DHT22;30743;52.008;5.644;2023-06-26T06:30:41;28.00;99.90
45008;DHT22;30743;52.008;5.644;2023-06-26T06:33:07;28.20;99.50
45008;DHT22;30743;52.008;5.644;2023-06-26T06:35:32;28.30;99.20
45008;DHT22;30743;52.008;5.644;2023-06-26T06:37:58;28.40;98.70
45008;DHT22;30743;52.008;5.644;2023-06-26T06:40:24;28.50;98.60
45008;DHT22;30743;52.008;5.644;2023-06-26T06:42:51;28.60;98.10
45008;DHT22;30743;52.008;5.644;2023-06-26T06:45:16;28.60;97.40
45008;DHT22;30743;52.008;5.644;2023-06-26T06:47:42;28.80;97.10
45008;DHT22;30743;52.008;5.644;2023-06-26T06:50:07;28.80;96.80
45008;DHT22;30743;52.008;5.644;2023-06-26T06:52:37;28.90;96.60
45008;DHT22;30743;52.008;5.644;2023-06-26T06:55:03;28.90;96.50
45008;DHT22;30743;52.008;5.644;2023-06-26T06:57:35;29.00;96.30
45008;DHT22;30743;52.008;5.644;2023-06-26T07:00:07;29.10;96.10
45008;DHT22;30743;52.008;5.644;2023-06-26T07:02:41;29.10;95.90
45008;DHT22;30743;52.008;5.644;2023-06-26T07:05:07;29.10;95.60
45008;DHT22;30743;52.008;5.644;2023-06-26T07:07:34;29.20;95.90
45008;DHT22;30743;52.008;5.644;2023-06-26T07:10:02;29.20;95.70
45008;DHT22;30743;52.008;5.644;2023-06-26T07:12:28;29.30;95.90
45008;DHT22;30743;52.008;5.644;2023-06-26T07:14:55;29.40;96.00
45008;DHT22;30743;52.008;5.644;2023-06-26T07:17:21;29.40;95.80
45008;DHT22;30743;52.008;5.644;2023-06-26T07:19:47;29.50;95.80
45008;DHT22;30743;52.008;5.644;2023-06-26T07:22:13;29.50;95.50
45008;DHT22;30743;52.008;5.644;2023-06-26T07:24:38;29.60;95.70
45008;DHT22;30743;52.008;5.644;2023-06-26T07:27:04;29.70;95.80
45008;DHT22;30743;52.008;5.644;2023-06-26T07:29:29;29.80;96.10
45008;DHT22;30743;52.008;5.644;2023-06-26T07:31:55;29.70;95.60
45008;DHT22;30743;52.008;5.644;2023-06-26T07:34:20;29.90;95.50
45008;DHT22;30743;52.008;5.644;2023-06-26T07:36:46;29.90;95.60
45008;DHT22;30743;52.008;5.644;2023-06-26T07:39:12;30.10;95.40
45008;DHT22;30743;52.008;5.644;2023-06-26T07:41:37;30.00;94.90
45008;DHT22;30743;52.008;5.644;2023-06-26T07:44:03;30.10;94.80
45008;DHT22;30743;52.008;5.644;2023-06-26T07:46:28;30.20;94.70
45008;DHT22;30743;52.008;5.644;2023-06-26T07:48:54;30.20;94.50
45008;DHT22;30743;52.008;5.644;2023-06-26T07:51:20;30.30;94.40
45008;DHT22;30743;52.008;5.644;2023-06-26T07:53:45;30.30;94.40
45008;DHT22;30743;52.008;5.644;2023-06-26T07:56:11;30.30;94.50
45008;DHT22;30743;52.008;5.644;2023-06-26T07:58:36;30.40;94.30
45008;DHT22;30743;52.008;5.644;2023-06-26T08:01:02;30.40;94.30
45008;DHT22;30743;52.008;5.644;2023-06-26T08:03:28;30.40;94.20
45008;DHT22;30743;52.008;5.644;2023-06-26T08:05:53;30.30;94.00
45008;DHT22;30743;52.008;5.644;2023-06-26T08:08:19;30.40;94.10
45008;DHT22;30743;52.008;5.644;2023-06-26T08:10:44;30.40;94.10
45008;DHT22;30743;52.008;5.644;2023-06-26T08:13:10;30.90;94.10
45008;DHT22;30743;52.008;5.644;2023-06-26T08:15:35;30.60;94.00
45008;DHT22;30743;52.008;5.644;2023-06-26T08:18:01;30.70;93.70
45008;DHT22;30743;52.008;5.644;2023-06-26T08:20:26;30.70;93.90
45008;DHT22;30743;52.008;5.644;2023-06-26T08:22:53;30.90;93.60
45008;DHT22;30743;52.008;5.644;2023-06-26T08:25:20;30.90;93.60
45008;DHT22;30743;52.008;5.644;2023-06-26T08:27:45;30.80;93.40
45008;DHT22;30743;52.008;5.644;2023-06-26T08:30:11;30.80;93.10
45008;DHT22;30743;52.008;5.644;2023-06-26T08:32:37;30.70;93.50
45008;DHT22;30743;52.008;5.644;2023-06-26T08:35:03;30.70;93.10
45008;DHT22;30743;52.008;5.644;2023-06-26T08:37:28;30.50;93.40
45008;DHT22;30743;52.008;5.644;2023-06-26T08:39:54;30.40;93.50
45008;DHT22;30743;52.008;5.644;2023-06-26T08:42:19;30.30;93.30
45008;DHT22;30743;52.008;5.644;2023-06-26T08:44:45;30.40;93.30
45008;DHT22;30743;52.008;5.644;2023-06-26T08:47:11;30.50;92.80
45008;DHT22;30743;52.008;5.644;2023-06-26T08:49:56;30.70;92.20
45008;DHT22;30743;52.008;5.644;2023-06-26T08:52:33;30.90;92.20
45008;DHT22;30743;52.008;5.644;2023-06-26T08:55:02;31.00;92.00
45008;DHT22;30743;52.008;5.644;2023-06-26T08:57:30;31.00;91.40
45008;DHT22;30743;52.008;5.644;2023-06-26T08:59:57;30.70;92.00
45008;DHT22;30743;52.008;5.644;2023-06-26T09:02:23;30.70;91.90
45008;DHT22;30743;52.008;5.644;2023-06-26T09:04:50;30.70;91.70
45008;DHT22;30743;52.008;5.644;2023-06-26T09:07:16;30.80;90.70
45008;DHT22;30743;52.008;5.644;2023-06-26T09:09:41;30.70;91.70
45008;DHT22;30743;52.008;5.644;2023-06-26T09:12:08;30.70;91.70
45008;DHT22;30743;52.008;5.644;2023-06-26T09:14:34;30.70;91.50
45008;DHT22;30743;52.008;5.644;2023-06-26T09:17:00;30.90;91.30
45008;DHT22;30743;52.008;5.644;2023-06-26T09:19:26;30.80;89.70
45008;DHT22;30743;52.008;5.644;2023-06-26T09:21:52;30.70;91.20
45008;DHT22;30743;52.008;5.644;2023-06-26T09:24:17;30.60;91.40
45008;DHT22;30743;52.008;5.644;2023-06-26T09:26:43;30.50;90.80
45008;DHT22;30743;52.008;5.644;2023-06-26T09:29:09;30.40;91.10
45008;DHT22;30743;52.008;5.644;2023-06-26T09:31:39;30.40;91.00
45008;DHT22;30743;52.008;5.644;2023-06-26T09:34:05;30.70;90.60
45008;DHT22;30743;52.008;5.644;2023-06-26T09:36:31;30.80;90.20
45008;DHT22;30743;52.008;5.644;2023-06-26T09:39:05;30.90;89.40
45008;DHT22;30743;52.008;5.644;2023-06-26T09:41:36;31.20;88.60
45008;DHT22;30743;52.008;5.644;2023-06-26T09:44:05;31.30;88.90
45008;DHT22;30743;52.008;5.644;2023-06-26T09:46:31;31.30;88.80
45008;DHT22;30743;52.008;5.644;2023-06-26T09:49:08;31.40;87.50
45008;DHT22;30743;52.008;5.644;2023-06-26T09:51:35;31.40;87.30
45008;DHT22;30743;52.008;5.644;2023-06-26T09:54:02;31.40;87.50
45008;DHT22;30743;52.008;5.644;2023-06-26T09:56:28;31.30;87.10
45008;DHT22;30743;52.008;5.644;2023-06-26T09:58:58;31.20;86.10
45008;DHT22;30743;52.008;5.644;2023-06-26T10:01:24;30.90;86.70
45008;DHT22;30743;52.008;5.644;2023-06-26T10:03:50;30.60;86.40
45008;DHT22;30743;52.008;5.644;2023-06-26T10:06:19;30.40;86.80
45008;DHT22;30743;52.008;5.644;2023-06-26T10:08:48;30.40;85.90
45008;DHT22;30743;52.008;5.644;2023-06-26T10:11:18;30.30;87.00
45008;DHT22;30743;52.008;5.644;2023-06-26T10:13:49;30.30;86.10
45008;DHT22;30743;52.008;5.644;2023-06-26T10:16:26;30.30;86.50
45008;DHT22;30743;52.008;5.644;2023-06-26T10:18:53;30.20;86.20
45008;DHT22;30743;52.008;5.644;2023-06-26T10:21:22;30.40;85.80
45008;DHT22;30743;52.008;5.644;2023-06-26T10:23:50;30.60;83.80
45008;DHT22;30743;52.008;5.644;2023-06-26T10:26:19;30.90;83.20
45008;DHT22;30743;52.008;5.644;2023-06-26T10:28:46;31.00;83.60
45008;DHT22;30743;52.008;5.644;2023-06-26T10:31:15;31.20;82.70
45008;DHT22;30743;52.008;5.644;2023-06-26T10:33:42;31.20;83.30
45008;DHT22;30743;52.008;5.644;2023-06-26T10:38:53;31.50;82.40
45008;DHT22;30743;52.008;5.644;2023-06-26T10:41:23;31.40;82.00
45008;DHT22;30743;52.008;5.644;2023-06-26T10:43:50;31.30;82.40
45008;DHT22;30743;52.008;5.644;2023-06-26T10:46:18;31.40;82.20
45008;DHT22;30743;52.008;5.644;2023-06-26T10:48:57;31.50;82.10
45008;DHT22;30743;52.008;5.644;2023-06-26T10:51:24;31.40;82.30
45008;DHT22;30743;52.008;5.644;2023-06-26T10:53:54;31.60;82.20
45008;DHT22;30743;52.008;5.644;2023-06-26T10:56:20;31.20;81.40
45008;DHT22;30743;52.008;5.644;2023-06-26T10:58:47;31.00;81.80
45008;DHT22;30743;52.008;5.644;2023-06-26T11:01:22;31.10;82.00
45008;DHT22;30743;52.008;5.644;2023-06-26T11:04:05;31.20;81.90
45008;DHT22;30743;52.008;5.644;2023-06-26T11:06:31;31.30;81.20
45008;DHT22;30743;52.008;5.644;2023-06-26T11:09:15;31.40;81.20
45008;DHT22;30743;52.008;5.644;2023-06-26T11:11:55;31.50;80.80
45008;DHT22;30743;52.008;5.644;2023-06-26T11:14:25;31.40;80.60
45008;DHT22;30743;52.008;5.644;2023-06-26T11:16:52;31.40;80.60
45008;DHT22;30743;52.008;5.644;2023-06-26T11:19:18;31.60;79.40
45008;DHT22;30743;52.008;5.644;2023-06-26T11:21:45;31.70;80.00
45008;DHT22;30743;52.008;5.644;2023-06-26T11:24:12;31.80;79.10
45008;DHT22;30743;52.008;5.644;2023-06-26T11:26:44;31.90;79.20
45008;DHT22;30743;52.008;5.644;2023-06-26T11:29:11;31.90;78.50
45008;DHT22;30743;52.008;5.644;2023-06-26T11:31:38;32.10;78.20
45008;DHT22;30743;52.008;5.644;2023-06-26T11:34:11;32.30;78.60
45008;DHT22;30743;52.008;5.644;2023-06-26T11:36:38;32.40;77.70
45008;DHT22;30743;52.008;5.644;2023-06-26T11:39:05;32.30;77.90
45008;DHT22;30743;52.008;5.644;2023-06-26T11:41:32;32.20;77.40
45008;DHT22;30743;52.008;5.644;2023-06-26T11:44:06;31.90;77.40
45008;DHT22;30743;52.008;5.644;2023-06-26T11:46:33;31.80;78.00
45008;DHT22;30743;52.008;5.644;2023-06-26T11:48:59;31.70;78.00
45008;DHT22;30743;52.008;5.644;2023-06-26T11:51:27;31.30;77.90
45008;DHT22;30743;52.008;5.644;2023-06-26T11:53:52;31.50;78.60
45008;DHT22;30743;52.008;5.644;2023-06-26T11:56:18;31.50;78.10
45008;DHT22;30743;52.008;5.644;2023-06-26T11:59:04;31.70;77.80
45008;DHT22;30743;52.008;5.644;2023-06-26T12:01:52;32.00;78.10
45008;DHT22;30743;52.008;5.644;2023-06-26T12:04:18;32.20;76.50
45008;DHT22;30743;52.008;5.644;2023-06-26T12:06:46;32.40;77.40
45008;DHT22;30743;52.008;5.644;2023-06-26T12:09:13;32.50;76.50
45008;DHT22;30743;52.008;5.644;2023-06-26T12:11:41;32.60;76.60
45008;DHT22;30743;52.008;5.644;2023-06-26T12:14:08;32.70;76.20
45008;DHT22;30743;52.008;5.644;2023-06-26T12:16:35;32.70;76.20
45008;DHT22;30743;52.008;5.644;2023-06-26T12:24:12;32.80;76.10
45008;DHT22;30743;52.008;5.644;2023-06-26T12:26:41;32.90;75.30
45008;DHT22;30743;52.008;5.644;2023-06-26T12:29:17;32.90;75.60
45008;DHT22;30743;52.008;5.644;2023-06-26T12:31:45;32.90;76.70
45008;DHT22;30743;52.008;5.644;2023-06-26T12:34:12;32.90;74.40
45008;DHT22;30743;52.008;5.644;2023-06-26T12:36:45;33.00;75.30
45008;DHT22;30743;52.008;5.644;2023-06-26T12:39:12;33.10;75.10
45008;DHT22;30743;52.008;5.644;2023-06-26T12:41:48;33.30;74.80
45008;DHT22;30743;52.008;5.644;2023-06-26T12:44:29;33.40;72.30
45008;DHT22;30743;52.008;5.644;2023-06-26T12:47:00;33.60;74.00
45008;DHT22;30743;52.008;5.644;2023-06-26T12:49:36;33.70;73.90
45008;DHT22;30743;52.008;5.644;2023-06-26T12:52:05;33.80;72.80
45008;DHT22;30743;52.008;5.644;2023-06-26T12:54:31;33.80;72.40
45008;DHT22;30743;52.008;5.644;2023-06-26T12:56:58;33.70;72.40
45008;DHT22;30743;52.008;5.644;2023-06-26T12:59:23;33.60;73.10
45008;DHT22;30743;52.008;5.644;2023-06-26T13:01:49;33.60;72.40
45008;DHT22;30743;52.008;5.644;2023-06-26T13:04:15;33.60;71.30
45008;DHT22;30743;52.008;5.644;2023-06-26T13:06:41;33.60;70.00
45008;DHT22;30743;52.008;5.644;2023-06-26T13:09:06;33.70;71.80
45008;DHT22;30743;52.008;5.644;2023-06-26T13:11:32;33.80;70.30
45008;DHT22;30743;52.008;5.644;2023-06-26T13:13:59;33.90;68.40
45008;DHT22;30743;52.008;5.644;2023-06-26T13:16:24;34.00;68.60
45008;DHT22;30743;52.008;5.644;2023-06-26T13:18:50;34.00;68.50
45008;DHT22;30743;52.008;5.644;2023-06-26T13:21:16;34.10;69.00
45008;DHT22;30743;52.008;5.644;2023-06-26T13:23:42;34.30;68.00
45008;DHT22;30743;52.008;5.644;2023-06-26T13:26:08;34.20;68.30
45008;DHT22;30743;52.008;5.644;2023-06-26T13:28:33;34.30;68.20
45008;DHT22;30743;52.008;5.644;2023-06-26T13:30:59;34.40;67.10
45008;DHT22;30743;52.008;5.644;2023-06-26T13:33:24;34.30;69.10
45008;DHT22;30743;52.008;5.644;2023-06-26T13:35:51;34.50;67.00
45008;DHT22;30743;52.008;5.644;2023-06-26T13:38:19;34.50;68.10
45008;DHT22;30743;52.008;5.644;2023-06-26T13:40:45;34.60;67.30
45008;DHT22;30743;52.008;5.644;2023-06-26T13:43:10;34.80;67.00
45008;DHT22;30743;52.008;5.644;2023-06-26T13:45:36;34.80;67.30
45008;DHT22;30743;52.008;5.644;2023-06-26T13:48:02;34.90;66.50
45008;DHT22;30743;52.008;5.644;2023-06-26T13:50:29;34.90;66.70
45008;DHT22;30743;52.008;5.644;2023-06-26T13:52:54;35.00;66.90
45008;DHT22;30743;52.008;5.644;2023-06-26T13:55:20;35.00;67.00
45008;DHT22;30743;52.008;5.644;2023-06-26T13:57:48;35.20;67.20
45008;DHT22;30743;52.008;5.644;2023-06-26T14:00:15;34.90;67.20
45008;DHT22;30743;52.008;5.644;2023-06-26T14:02:45;35.30;66.10
45008;DHT22;30743;52.008;5.644;2023-06-26T14:05:10;35.30;67.10
45008;DHT22;30743;52.008;5.644;2023-06-26T14:07:36;35.80;66.80
45008;DHT22;30743;52.008;5.644;2023-06-26T14:10:03;35.40;65.40
45008;DHT22;30743;52.008;5.644;2023-06-26T14:12:30;35.50;65.90
45008;DHT22;30743;52.008;5.644;2023-06-26T14:14:56;35.40;65.90
45008;DHT22;30743;52.008;5.644;2023-06-26T14:17:21;35.50;65.90
45008;DHT22;30743;52.008;5.644;2023-06-26T14:19:49;35.60;64.90
45008;DHT22;30743;52.008;5.644;2023-06-26T14:22:15;35.60;64.10
45008;DHT22;30743;52.008;5.644;2023-06-26T14:24:40;35.60;64.20
45008;DHT22;30743;52.008;5.644;2023-06-26T14:27:06;35.50;65.00
45008;DHT22;30743;52.008;5.644;2023-06-26T14:29:31;35.60;65.50
45008;DHT22;30743;52.008;5.644;2023-06-26T14:31:57;35.60;65.70
45008;DHT22;30743;52.008;5.644;2023-06-26T14:34:22;35.50;64.20
45008;DHT22;30743;52.008;5.644;2023-06-26T14:36:48;35.40;65.20
45008;DHT22;30743;52.008;5.644;2023-06-26T14:39:14;35.50;64.90
45008;DHT22;30743;52.008;5.644;2023-06-26T14:41:39;35.30;62.90
45008;DHT22;30743;52.008;5.644;2023-06-26T14:44:05;35.30;63.90
45008;DHT22;30743;52.008;5.644;2023-06-26T14:46:33;35.30;64.20
45008;DHT22;30743;52.008;5.644;2023-06-26T14:48:59;35.20;65.40
45008;DHT22;30743;52.008;5.644;2023-06-26T14:51:24;35.10;65.60
45008;DHT22;30743;52.008;5.644;2023-06-26T14:53:51;35.10;65.50
45008;DHT22;30743;52.008;5.644;2023-06-26T14:56:16;35.80;66.30
45008;DHT22;30743;52.008;5.644;2023-06-26T14:58:42;34.90;64.70
45008;DHT22;30743;52.008;5.644;2023-06-26T15:01:07;34.90;64.40
45008;DHT22;30743;52.008;5.644;2023-06-26T15:03:34;34.80;64.30
45008;DHT22;30743;52.008;5.644;2023-06-26T15:05:59;34.70;64.40
45008;DHT22;30743;52.008;5.644;2023-06-26T15:08:25;34.60;64.80
45008;DHT22;30743;52.008;5.644;2023-06-26T15:10:50;34.90;64.50
45008;DHT22;30743;52.008;5.644;2023-06-26T15:13:16;34.60;65.60
45008;DHT22;30743;52.008;5.644;2023-06-26T15:15:41;34.50;65.40
45008;DHT22;30743;52.008;5.644;2023-06-26T15:18:07;34.40;66.50
45008;DHT22;30743;52.008;5.644;2023-06-26T15:20:33;34.40;65.30
45008;DHT22;30743;52.008;5.644;2023-06-26T15:22:58;34.40;66.30
45008;DHT22;30743;52.008;5.644;2023-06-26T15:25:24;34.30;66.70
45008;DHT22;30743;52.008;5.644;2023-06-26T15:27:49;34.30;65.20
45008;DHT22;30743;52.008;5.644;2023-06-26T15:30:15;34.30;65.30
45008;DHT22;30743;52.008;5.644;2023-06-26T15:32:41;34.30;65.50
45008;DHT22;30743;52.008;5.644;2023-06-26T15:35:07;34.40;67.80
45008;DHT22;30743;52.008;5.644;2023-06-26T15:37:33;34.30;67.30
45008;DHT22;30743;52.008;5.644;2023-06-26T15:39:58;34.20;66.70
45008;DHT22;30743;52.008;5.644;2023-06-26T15:42:27;34.20;65.50
45008;DHT22;30743;52.008;5.644;2023-06-26T15:44:56;34.20;65.20